Terminal Aerodrome Forecast
Issued by NWS Wilmington, OH

Current Version | Previous Version | Graphics & Text | Print | Product List | Glossary On
Versions: 1 2 3 4 5 6 7 8 9 10 11 12 13 14 15 16 17 18 19 20
916
FTUS41 KILN 171134
TAFILN
TAF
KILN 171134Z 1712/1812 00000KT 2SM BR SKC
     FM171300 19004KT P6SM FEW050
     FM180100 VRB03KT P6SM FEW250
     FM180800 00000KT 4SM BR SCT090=

USA.gov is the U.S. government's official web portal to all federal, state and local government web resources and services.